Time;durP1;ratioP1;P1;durP2;ratioP2;P2;SDS_P1;SDS_P2;PMS_P1;PMS_P2;Temp;Humidity;BMP_temperature;BMP_pressure;BME280_temperature;BME280_humidity;BME280_pressure;Samples;Min_cycle;Max_cycle;Signal;HPM_P1;HPM_P2
2022/03/16 00:01:43;;;;;;;11.83;3.50;;;;;;;;;;5005200;28;20655;-71
2022/03/16 00:04:08;;;;;;;11.02;3.30;;;;;;;;;;5004910;28;20287;-71
2022/03/16 00:06:33;;;;;;;16.37;3.20;;;;;;;;;;5003443;28;20289;-70
2022/03/16 00:08:58;;;;;;;15.05;3.65;;;;;;;;;;5002425;28;20271;-70
2022/03/16 00:11:23;;;;;;;11.90;3.70;;;;;;;;;;5001904;28;20626;-71
2022/03/16 00:13:48;;;;;;;14.40;3.43;;;;;;;;;;5003012;28;20327;-70
2022/03/16 00:16:14;;;;;;;10.68;3.25;;;;;;;;;;5004436;28;20247;-71
2022/03/16 00:18:39;;;;;;;24.08;4.15;;;;;;;;;;5004864;28;20287;-71
2022/03/16 00:21:04;;;;;;;12.35;3.70;;;;;;;;;;5002567;28;20251;-71
2022/03/16 00:23:29;;;;;;;17.53;3.37;;;;;;;;;;5003360;28;20025;-71
2022/03/16 00:25:54;;;;;;;9.73;3.42;;;;;;;;;;5001099;28;20359;-70
2022/03/16 00:28:19;;;;;;;6.15;3.35;;;;;;;;;;5005758;28;20272;-70
2022/03/16 00:30:44;;;;;;;9.77;2.77;;;;;;;;;;5002478;28;20294;-70
2022/03/16 00:33:11;;;;;;;9.48;3.17;;;;;;;;;;5002663;28;20255;-70
2022/03/16 00:35:36;;;;;;;13.95;3.20;;;;;;;;;;5002530;28;20270;-70
2022/03/16 00:38:01;;;;;;;15.65;3.35;;;;;;;;;;5003015;28;20023;-69
2022/03/16 00:40:26;;;;;;;10.20;3.25;;;;;;;;;;5003800;28;20404;-70
2022/03/16 00:42:52;;;;;;;13.80;3.42;;;;;;;;;;5003751;28;20251;-70
2022/03/16 00:45:17;;;;;;;11.23;2.88;;;;;;;;;;5003353;28;20631;-72
2022/03/16 00:47:42;;;;;;;11.65;3.72;;;;;;;;;;5003176;28;20032;-70
2022/03/16 00:50:07;;;;;;;11.68;3.72;;;;;;;;;;5002229;28;20014;-70
2022/03/16 00:52:32;;;;;;;9.93;3.00;;;;;;;;;;5003421;28;20309;-72
2022/03/16 00:54:58;;;;;;;6.18;3.00;;;;;;;;;;5001167;28;20032;-73
2022/03/16 00:57:23;;;;;;;10.15;3.78;;;;;;;;;;5003220;28;20283;-72
2022/03/16 00:59:48;;;;;;;14.35;3.65;;;;;;;;;;5004713;28;20259;-72
2022/03/16 01:02:13;;;;;;;6.22;3.13;;;;;;;;;;5000771;28;20633;-71
2022/03/16 01:04:38;;;;;;;7.10;3.00;;;;;;;;;;5001019;28;20248;-72
2022/03/16 01:07:04;;;;;;;10.20;3.60;;;;;;;;;;5003035;28;20722;-72
2022/03/16 01:09:29;;;;;;;11.02;3.60;;;;;;;;;;5002591;28;20260;-70
2022/03/16 01:11:54;;;;;;;11.52;3.65;;;;;;;;;;5001454;28;20026;-72
2022/03/16 01:14:19;;;;;;;7.32;3.78;;;;;;;;;;5003919;28;20302;-72
2022/03/16 01:16:44;;;;;;;6.30;3.10;;;;;;;;;;5002376;28;20623;-74
2022/03/16 01:19:14;;;;;;;10.68;3.42;;;;;;;;;;5004101;28;20287;-71
2022/03/16 01:21:39;;;;;;;9.30;3.05;;;;;;;;;;5004763;28;20270;-71
2022/03/16 01:24:05;;;;;;;7.30;3.20;;;;;;;;;;5001826;28;20023;-71
2022/03/16 01:26:30;;;;;;;10.13;3.63;;;;;;;;;;5003500;28;20292;-70
2022/03/16 01:28:55;;;;;;;10.77;4.07;;;;;;;;;;4999149;28;20038;-70
2022/03/16 01:31:21;;;;;;;6.72;3.33;;;;;;;;;;5002832;28;20730;-71
2022/03/16 01:33:46;;;;;;;7.80;3.60;;;;;;;;;;5003810;28;20255;-70
2022/03/16 01:36:11;;;;;;;10.20;3.88;;;;;;;;;;5000911;28;20109;-71
2022/03/16 01:38:36;;;;;;;9.70;3.40;;;;;;;;;;5001131;28;20654;-70
2022/03/16 01:41:01;;;;;;;13.57;4.00;;;;;;;;;;5001398;28;20351;-70
2022/03/16 01:43:26;;;;;;;11.40;3.38;;;;;;;;;;5001957;28;20247;-70
2022/03/16 01:45:52;;;;;;;11.60;3.57;;;;;;;;;;5003094;28;20036;-70
2022/03/16 01:48:17;;;;;;;10.27;3.50;;;;;;;;;;5002410;28;21194;-71
2022/03/16 01:50:42;;;;;;;8.07;3.65;;;;;;;;;;5004688;28;20038;-70
2022/03/16 01:53:07;;;;;;;9.90;3.77;;;;;;;;;;5000585;28;20026;-70
2022/03/16 01:55:33;;;;;;;6.35;4.00;;;;;;;;;;5002231;28;20255;-70
2022/03/16 01:57:58;;;;;;;11.57;4.35;;;;;;;;;;5001070;28;20119;-70
2022/03/16 02:00:23;;;;;;;11.68;4.35;;;;;;;;;;4998150;28;20034;-70
2022/03/16 02:02:48;;;;;;;9.93;4.38;;;;;;;;;;5001364;28;20286;-70
2022/03/16 02:05:13;;;;;;;15.70;4.45;;;;;;;;;;5002170;28;20026;-70
2022/03/16 02:07:40;;;;;;;11.30;4.72;;;;;;;;;;5001064;28;20277;-70
2022/03/16 02:10:05;;;;;;;16.23;4.22;;;;;;;;;;5002717;28;20026;-70
2022/03/16 02:12:40;;;;;;;11.48;4.28;;;;;;;;;;5000853;28;20476;-70
2022/03/16 02:15:06;;;;;;;16.02;4.43;;;;;;;;;;4999564;28;20018;-70
2022/03/16 02:17:31;;;;;;;10.05;4.13;;;;;;;;;;5003832;28;20020;-70
2022/03/16 02:19:56;;;;;;;14.65;4.65;;;;;;;;;;5002526;28;20022;-71
2022/03/16 02:22:21;;;;;;;14.63;5.07;;;;;;;;;;5001920;28;20317;-70
2022/03/16 02:24:46;;;;;;;12.35;4.93;;;;;;;;;;5001761;28;20251;-71
2022/03/16 02:27:12;;;;;;;11.27;4.60;;;;;;;;;;5000414;28;20287;-70
2022/03/16 02:29:37;;;;;;;9.93;4.70;;;;;;;;;;5001223;28;20033;-72
2022/03/16 02:32:02;;;;;;;19.27;4.90;;;;;;;;;;5001246;28;20268;-71
2022/03/16 02:34:27;;;;;;;11.63;4.85;;;;;;;;;;5001594;28;20080;-71
2022/03/16 02:36:53;;;;;;;18.25;4.82;;;;;;;;;;5002763;28;20030;-71
2022/03/16 02:39:18;;;;;;;16.33;5.45;;;;;;;;;;5001249;28;20282;-71
2022/03/16 02:41:47;;;;;;;14.43;5.87;;;;;;;;;;5000942;28;20248;-71
2022/03/16 02:44:12;;;;;;;11.48;5.47;;;;;;;;;;5000260;28;20342;-71
2022/03/16 02:46:37;;;;;;;13.48;5.38;;;;;;;;;;5001772;28;20559;-71
2022/03/16 02:49:03;;;;;;;9.50;4.90;;;;;;;;;;5002616;28;20584;-70
2022/03/16 02:51:28;;;;;;;12.75;5.25;;;;;;;;;;5003900;28;20031;-70
2022/03/16 02:53:53;;;;;;;8.80;5.22;;;;;;;;;;5006448;28;20897;-70
2022/03/16 02:56:19;;;;;;;11.48;5.53;;;;;;;;;;5003301;28;20065;-70
2022/03/16 02:58:44;;;;;;;18.10;5.55;;;;;;;;;;5006046;28;20489;-70
2022/03/16 03:01:09;;;;;;;17.23;5.90;;;;;;;;;;5004999;28;20061;-70
2022/03/16 03:03:34;;;;;;;20.33;6.28;;;;;;;;;;5004712;28;20251;-70
2022/03/16 03:05:59;;;;;;;17.70;5.93;;;;;;;;;;5004176;28;20278;-70
2022/03/16 03:08:25;;;;;;;9.85;5.25;;;;;;;;;;5004737;28;20765;-71
2022/03/16 03:10:50;;;;;;;10.68;5.72;;;;;;;;;;5004576;28;20053;-71
2022/03/16 03:13:15;;;;;;;12.33;6.13;;;;;;;;;;5005465;28;20112;-70
2022/03/16 03:15:41;;;;;;;12.88;6.18;;;;;;;;;;5005194;28;20255;-70
2022/03/16 03:18:06;;;;;;;12.90;5.80;;;;;;;;;;5006566;28;20106;-70
2022/03/16 03:20:32;;;;;;;10.30;5.90;;;;;;;;;;5004419;28;20053;-70
2022/03/16 03:22:57;;;;;;;8.73;5.50;;;;;;;;;;5005618;28;20278;-70
2022/03/16 03:25:23;;;;;;;10.93;5.73;;;;;;;;;;5003806;28;20014;-70
2022/03/16 03:27:48;;;;;;;18.88;6.03;;;;;;;;;;5005775;28;20876;-71
2022/03/16 03:30:13;;;;;;;16.15;5.93;;;;;;;;;;5001936;28;20042;-70
2022/03/16 03:32:38;;;;;;;14.57;6.47;;;;;;;;;;5004076;28;20247;-70
2022/03/16 03:35:03;;;;;;;12.32;6.57;;;;;;;;;;5004071;28;20314;-70
2022/03/16 03:37:29;;;;;;;14.68;6.00;;;;;;;;;;5003468;28;20818;-70
2022/03/16 03:39:54;;;;;;;9.05;6.03;;;;;;;;;;5004013;28;20010;-70
2022/03/16 03:42:20;;;;;;;16.45;6.63;;;;;;;;;;5004647;28;20151;-70
2022/03/16 03:44:45;;;;;;;9.80;6.15;;;;;;;;;;5004152;28;20133;-71
2022/03/16 03:47:10;;;;;;;12.90;6.47;;;;;;;;;;5002749;28;20055;-70
2022/03/16 03:49:36;;;;;;;9.88;5.80;;;;;;;;;;5004070;28;20025;-70
2022/03/16 03:52:01;;;;;;;14.07;6.25;;;;;;;;;;5002894;28;20045;-71
2022/03/16 03:54:26;;;;;;;11.18;6.53;;;;;;;;;;5001584;28;20040;-70
2022/03/16 03:56:52;;;;;;;12.68;6.65;;;;;;;;;;5003331;28;20458;-70
2022/03/16 03:59:17;;;;;;;10.93;6.70;;;;;;;;;;5003889;28;20032;-70
2022/03/16 04:01:42;;;;;;;20.67;7.05;;;;;;;;;;5001127;28;20263;-70
2022/03/16 04:04:07;;;;;;;12.73;7.13;;;;;;;;;;5006164;28;20041;-69
2022/03/16 04:06:33;;;;;;;12.68;7.30;;;;;;;;;;5004256;28;20033;-70
2022/03/16 04:08:58;;;;;;;11.00;6.80;;;;;;;;;;5006174;28;20014;-70
2022/03/16 04:11:23;;;;;;;12.07;6.75;;;;;;;;;;5002446;28;20025;-70
2022/03/16 04:13:48;;;;;;;14.20;7.80;;;;;;;;;;5002071;28;20300;-70
2022/03/16 04:16:13;;;;;;;11.88;7.07;;;;;;;;;;5002140;28;20346;-70
2022/03/16 04:18:39;;;;;;;12.95;6.93;;;;;;;;;;5002408;28;20276;-70
2022/03/16 04:21:04;;;;;;;16.63;7.65;;;;;;;;;;5004511;28;20287;-70
2022/03/16 04:23:29;;;;;;;10.83;6.97;;;;;;;;;;5004900;28;20028;-70
2022/03/16 04:25:54;;;;;;;14.85;7.63;;;;;;;;;;5001748;28;20263;-70
2022/03/16 04:28:19;;;;;;;19.77;7.53;;;;;;;;;;5001351;28;20061;-70
2022/03/16 04:30:45;;;;;;;13.32;6.95;;;;;;;;;;5000993;28;20275;-70
2022/03/16 04:33:10;;;;;;;18.70;7.45;;;;;;;;;;5001617;28;20253;-71
2022/03/16 04:35:35;;;;;;;12.05;7.10;;;;;;;;;;5000692;28;20272;-71
2022/03/16 04:38:00;;;;;;;14.80;6.97;;;;;;;;;;5002192;28;20278;-71
2022/03/16 04:40:25;;;;;;;14.07;6.97;;;;;;;;;;5000625;28;20444;-70
2022/03/16 04:42:50;;;;;;;11.88;6.90;;;;;;;;;;5004291;28;20275;-70
2022/03/16 04:45:16;;;;;;;11.60;7.60;;;;;;;;;;5006700;28;20255;-69
2022/03/16 04:47:41;;;;;;;12.93;7.25;;;;;;;;;;5002213;28;20287;-69
2022/03/16 04:50:06;;;;;;;11.52;6.80;;;;;;;;;;5005997;28;20492;-70
2022/03/16 04:52:32;;;;;;;13.43;6.82;;;;;;;;;;5004017;28;20366;-70
2022/03/16 04:54:57;;;;;;;10.63;6.72;;;;;;;;;;5001913;28;20013;-69
2022/03/16 04:57:22;;;;;;;13.93;7.10;;;;;;;;;;5005544;28;20068;-70
2022/03/16 04:59:47;;;;;;;12.18;7.25;;;;;;;;;;5008726;28;20057;-70
2022/03/16 05:02:12;;;;;;;13.73;7.43;;;;;;;;;;5001831;28;20784;-72
2022/03/16 05:04:37;;;;;;;15.50;7.70;;;;;;;;;;5000273;28;20275;-73
2022/03/16 05:07:03;;;;;;;12.95;6.53;;;;;;;;;;5000195;28;20307;-72
2022/03/16 05:09:28;;;;;;;10.80;7.47;;;;;;;;;;4999723;28;20264;-72
2022/03/16 05:11:53;;;;;;;12.48;7.97;;;;;;;;;;4999580;28;20105;-72
2022/03/16 05:14:18;;;;;;;14.10;7.70;;;;;;;;;;5000205;28;20262;-72
2022/03/16 05:16:43;;;;;;;14.82;8.30;;;;;;;;;;5001213;28;20275;-72
2022/03/16 05:19:08;;;;;;;11.13;7.50;;;;;;;;;;5001441;28;20307;-72
2022/03/16 05:21:33;;;;;;;13.52;8.00;;;;;;;;;;4999216;28;20623;-72
2022/03/16 05:23:59;;;;;;;16.25;7.70;;;;;;;;;;5000075;28;20425;-72
2022/03/16 05:26:24;;;;;;;15.37;7.17;;;;;;;;;;5000542;28;20331;-72
2022/03/16 05:28:49;;;;;;;11.15;7.68;;;;;;;;;;5000595;28;20267;-72
2022/03/16 05:31:14;;;;;;;13.50;8.02;;;;;;;;;;5000152;28;20492;-72
2022/03/16 05:33:39;;;;;;;12.48;7.60;;;;;;;;;;4999899;28;20820;-72
2022/03/16 05:36:04;;;;;;;13.77;9.07;;;;;;;;;;4999950;28;20251;-73
2022/03/16 05:38:30;;;;;;;17.60;8.32;;;;;;;;;;5000227;28;20010;-72
2022/03/16 05:40:55;;;;;;;18.58;8.68;;;;;;;;;;5000126;28;20374;-72
2022/03/16 05:43:21;;;;;;;11.75;7.35;;;;;;;;;;4999379;28;20058;-71
2022/03/16 05:45:47;;;;;;;11.70;7.85;;;;;;;;;;4999829;28;20014;-70
2022/03/16 05:48:12;;;;;;;14.32;7.40;;;;;;;;;;4998891;28;20026;-70
2022/03/16 05:50:40;;;;;;;13.65;6.95;;;;;;;;;;5001046;28;20027;-70
2022/03/16 05:53:05;;;;;;;15.10;8.02;;;;;;;;;;4999823;28;20639;-72
2022/03/16 05:55:30;;;;;;;13.10;7.88;;;;;;;;;;4999297;28;20026;-73
2022/03/16 05:57:55;;;;;;;12.65;7.78;;;;;;;;;;4999361;28;20046;-73
2022/03/16 06:00:21;;;;;;;12.07;8.07;;;;;;;;;;4998806;28;20558;-72
2022/03/16 06:02:46;;;;;;;15.07;8.73;;;;;;;;;;4997130;28;20262;-72
2022/03/16 06:05:12;;;;;;;12.50;8.13;;;;;;;;;;4998987;28;20018;-72
2022/03/16 06:07:40;;;;;;;15.55;8.15;;;;;;;;;;5000199;28;20052;-70
2022/03/16 06:10:06;;;;;;;17.77;9.90;;;;;;;;;;4999205;28;20099;-71
2022/03/16 06:12:31;;;;;;;19.15;9.63;;;;;;;;;;4999126;28;20053;-71
2022/03/16 06:14:56;;;;;;;22.10;11.15;;;;;;;;;;4998533;28;20203;-71
2022/03/16 06:17:21;;;;;;;17.08;9.88;;;;;;;;;;4999003;28;20105;-70
2022/03/16 06:19:46;;;;;;;16.58;9.50;;;;;;;;;;4999875;28;20279;-71
2022/03/16 06:22:11;;;;;;;15.18;9.18;;;;;;;;;;4999876;28;20263;-70
2022/03/16 06:24:36;;;;;;;15.43;8.63;;;;;;;;;;5000521;28;20306;-70
2022/03/16 06:27:02;;;;;;;17.58;10.88;;;;;;;;;;5001775;28;20276;-70
2022/03/16 06:29:27;;;;;;;18.83;10.27;;;;;;;;;;5001008;28;20638;-70
2022/03/16 06:31:52;;;;;;;19.50;10.75;;;;;;;;;;4997875;28;20033;-70
2022/03/16 06:34:17;;;;;;;15.00;10.07;;;;;;;;;;5000913;28;20032;-70
2022/03/16 06:36:42;;;;;;;17.83;11.07;;;;;;;;;;5000781;28;20080;-71
2022/03/16 06:39:08;;;;;;;18.25;11.65;;;;;;;;;;4999912;28;20271;-70
2022/03/16 06:41:33;;;;;;;23.58;12.15;;;;;;;;;;5001526;28;20026;-70
2022/03/16 06:43:58;;;;;;;18.92;12.13;;;;;;;;;;4998562;28;20278;-72
2022/03/16 06:46:23;;;;;;;23.42;12.65;;;;;;;;;;4998503;28;20264;-72
2022/03/16 06:48:48;;;;;;;21.80;12.85;;;;;;;;;;4997569;28;20803;-71
2022/03/16 06:51:13;;;;;;;21.90;12.68;;;;;;;;;;4998865;28;20030;-70
2022/03/16 06:53:39;;;;;;;20.63;13.63;;;;;;;;;;4998143;28;20018;-69
2022/03/16 06:56:04;;;;;;;23.88;14.32;;;;;;;;;;4999506;28;20433;-70
2022/03/16 06:58:29;;;;;;;28.85;16.15;;;;;;;;;;4999611;28;20292;-71
2022/03/16 07:00:55;;;;;;;29.90;16.13;;;;;;;;;;4997688;28;20263;-70
2022/03/16 07:03:20;;;;;;;28.02;16.67;;;;;;;;;;4997801;28;20068;-70
2022/03/16 07:05:45;;;;;;;36.13;18.37;;;;;;;;;;4997082;28;20025;-70
2022/03/16 07:08:11;;;;;;;31.33;18.55;;;;;;;;;;4998719;28;21487;-70
2022/03/16 07:10:37;;;;;;;38.92;20.13;;;;;;;;;;4998884;28;20025;-69
2022/03/16 07:13:03;;;;;;;40.25;19.27;;;;;;;;;;4998210;28;20179;-70
2022/03/16 07:15:28;;;;;;;31.80;18.93;;;;;;;;;;4996870;28;20052;-70
2022/03/16 07:17:53;;;;;;;35.35;19.85;;;;;;;;;;4998918;28;20288;-70
2022/03/16 07:20:19;;;;;;;29.45;17.20;;;;;;;;;;4997997;28;20037;-70
2022/03/16 07:22:44;;;;;;;35.47;20.10;;;;;;;;;;4998896;28;20014;-69
2022/03/16 07:25:09;;;;;;;32.05;18.60;;;;;;;;;;4997819;28;20014;-71
2022/03/16 07:27:44;;;;;;;31.38;18.85;;;;;;;;;;4996875;28;20105;-71
2022/03/16 07:30:09;;;;;;;;;;;;;;;;;;4998262;28;20046;-69
2022/03/16 07:32:39;;;;;;;31.75;18.92;;;;;;;;;;4997730;28;19957;-69
2022/03/16 07:35:05;;;;;;;30.20;17.98;;;;;;;;;;4998302;28;20113;-71
2022/03/16 07:37:30;;;;;;;31.88;18.27;;;;;;;;;;5000863;28;20452;-71
2022/03/16 07:39:56;;;;;;;29.55;17.85;;;;;;;;;;5002370;28;20029;-70
2022/03/16 07:42:21;;;;;;;31.95;18.02;;;;;;;;;;5000509;28;20675;-71
2022/03/16 07:44:49;;;;;;;35.40;20.10;;;;;;;;;;5001724;28;20112;-70
2022/03/16 07:47:14;;;;;;;36.58;20.52;;;;;;;;;;5000682;28;20685;-70
2022/03/16 07:49:39;;;;;;;31.27;19.63;;;;;;;;;;5000269;28;20110;-70
2022/03/16 07:52:04;;;;;;;38.05;20.20;;;;;;;;;;5004684;28;20761;-70
2022/03/16 07:54:29;;;;;;;33.35;20.00;;;;;;;;;;5000880;28;20080;-70
2022/03/16 07:56:56;;;;;;;34.08;20.95;;;;;;;;;;5002081;28;20629;-69
2022/03/16 07:59:21;;;;;;;32.65;19.60;;;;;;;;;;5001863;28;20076;-70
2022/03/16 08:01:47;;;;;;;35.20;21.55;;;;;;;;;;4998745;28;20038;-69
2022/03/16 08:04:12;;;;;;;34.90;21.00;;;;;;;;;;5003054;28;20355;-70
2022/03/16 08:06:37;;;;;;;35.35;20.77;;;;;;;;;;5001121;28;20160;-70
2022/03/16 08:09:03;;;;;;;35.05;20.17;;;;;;;;;;5002553;28;20274;-70
2022/03/16 08:11:28;;;;;;;32.88;19.08;;;;;;;;;;5001341;28;20022;-70
2022/03/16 08:13:53;;;;;;;34.97;20.63;;;;;;;;;;5000937;28;20305;-69
2022/03/16 08:16:18;;;;;;;35.47;19.83;;;;;;;;;;5001737;28;20145;-70
2022/03/16 08:18:43;;;;;;;34.55;20.73;;;;;;;;;;5002572;28;20345;-71
2022/03/16 08:21:08;;;;;;;31.63;19.52;;;;;;;;;;5002394;28;20096;-69
2022/03/16 08:23:33;;;;;;;31.05;19.40;;;;;;;;;;5001967;28;20117;-70
2022/03/16 08:25:59;;;;;;;41.63;20.73;;;;;;;;;;5000323;28;20279;-70
2022/03/16 08:28:24;;;;;;;39.90;20.48;;;;;;;;;;5000937;28;20037;-70
2022/03/16 08:30:50;;;;;;;38.15;19.58;;;;;;;;;;4999680;28;20095;-70
2022/03/16 08:33:15;;;;;;;37.83;18.88;;;;;;;;;;5002290;28;20450;-70
2022/03/16 08:35:41;;;;;;;68.55;22.55;;;;;;;;;;4987092;28;20812;-70
2022/03/16 08:38:06;;;;;;;35.28;19.98;;;;;;;;;;4999845;28;20338;-70
2022/03/16 08:40:31;;;;;;;55.95;20.83;;;;;;;;;;5000203;28;20054;-69
2022/03/16 08:42:56;;;;;;;95.57;20.17;;;;;;;;;;5000817;28;21377;-70
2022/03/16 08:45:21;;;;;;;83.55;21.98;;;;;;;;;;5000308;28;20263;-69
2022/03/16 08:47:46;;;;;;;37.80;21.35;;;;;;;;;;5001095;28;20034;-70
2022/03/16 08:50:12;;;;;;;41.08;22.90;;;;;;;;;;5001438;28;20274;-69
2022/03/16 08:52:37;;;;;;;81.07;23.35;;;;;;;;;;5001351;28;20908;-69
2022/03/16 08:55:02;;;;;;;48.65;23.45;;;;;;;;;;4998139;28;20498;-71
2022/03/16 08:57:28;;;;;;;51.13;22.58;;;;;;;;;;5000080;28;20033;-72
2022/03/16 08:59:55;;;;;;;65.80;21.83;;;;;;;;;;4998868;28;20026;-70
2022/03/16 09:02:20;;;;;;;38.25;22.05;;;;;;;;;;4999115;28;20120;-70
2022/03/16 09:04:45;;;;;;;35.00;20.88;;;;;;;;;;5000615;28;20497;-70
2022/03/16 09:07:11;;;;;;;38.35;21.73;;;;;;;;;;5001718;28;20102;-70
2022/03/16 09:09:36;;;;;;;36.95;19.63;;;;;;;;;;5001917;28;20073;-70
2022/03/16 09:12:01;;;;;;;62.08;19.70;;;;;;;;;;5001121;28;20066;-70
2022/03/16 09:14:27;;;;;;;33.60;19.75;;;;;;;;;;5000983;28;20085;-70
2022/03/16 09:16:52;;;;;;;36.00;20.73;;;;;;;;;;5000653;28;20026;-70
2022/03/16 09:19:20;;;;;;;39.20;21.27;;;;;;;;;;5000540;28;20033;-70
2022/03/16 09:21:45;;;;;;;40.70;20.05;;;;;;;;;;4999238;28;20272;-70
2022/03/16 09:24:11;;;;;;;36.55;20.75;;;;;;;;;;5000130;28;20028;-70
2022/03/16 09:26:36;;;;;;;52.15;20.90;;;;;;;;;;4997984;28;20026;-70
2022/03/16 09:29:01;;;;;;;48.85;21.27;;;;;;;;;;4999526;28;20022;-70
2022/03/16 09:31:26;;;;;;;55.15;21.75;;;;;;;;;;4998129;28;20275;-70
2022/03/16 09:33:51;;;;;;;45.70;21.63;;;;;;;;;;4999184;28;20402;-70
2022/03/16 09:36:17;;;;;;;51.88;22.33;;;;;;;;;;5000853;28;21413;-69
2022/03/16 09:38:42;;;;;;;67.07;24.77;;;;;;;;;;4982396;28;20433;-69
2022/03/16 09:41:07;;;;;;;48.28;22.70;;;;;;;;;;5000207;28;20029;-69
2022/03/16 09:43:33;;;;;;;48.15;23.23;;;;;;;;;;5000091;28;20101;-70
2022/03/16 09:46:04;;;;;;;64.15;23.02;;;;;;;;;;4999616;28;20329;-69
2022/03/16 09:48:29;;;;;;;45.75;22.13;;;;;;;;;;4998834;28;20029;-69
2022/03/16 09:50:54;;;;;;;42.60;23.67;;;;;;;;;;4998694;28;20038;-69
2022/03/16 09:53:20;;;;;;;44.80;21.65;;;;;;;;;;4999291;28;20275;-69
2022/03/16 09:55:45;;;;;;;47.92;21.67;;;;;;;;;;4999066;28;20104;-69
2022/03/16 09:58:10;;;;;;;46.72;21.65;;;;;;;;;;5000633;28;20029;-70
2022/03/16 10:00:36;;;;;;;38.28;21.30;;;;;;;;;;4998468;28;20410;-69
2022/03/16 10:03:02;;;;;;;38.65;21.30;;;;;;;;;;5000307;28;20252;-69
2022/03/16 10:05:28;;;;;;;45.40;21.05;;;;;;;;;;4998694;28;20041;-70
2022/03/16 10:07:53;;;;;;;41.50;20.95;;;;;;;;;;5000130;28;20026;-70
2022/03/16 10:13:15;;;;;;;31.20;18.80;;;;;;;;;;4999831;28;20025;-69
2022/03/16 10:15:42;;;;;;;34.58;18.92;;;;;;;;;;5000317;28;20029;-70
2022/03/16 10:18:07;;;;;;;33.13;18.27;;;;;;;;;;4999962;28;20013;-70
2022/03/16 10:20:33;;;;;;;30.77;17.92;;;;;;;;;;4998748;28;20018;-70
2022/03/16 10:22:59;;;;;;;32.47;18.95;;;;;;;;;;4999657;28;20268;-70
2022/03/16 10:25:28;;;;;;;35.92;18.83;;;;;;;;;;4997564;28;20026;-70
2022/03/16 10:28:08;;;;;;;33.20;18.60;;;;;;;;;;4998729;28;20030;-70
2022/03/16 10:30:33;;;;;;;33.17;19.33;;;;;;;;;;4998679;28;20108;-72
2022/03/16 10:32:58;;;;;;;34.88;18.80;;;;;;;;;;4999282;28;20077;-72
2022/03/16 10:35:26;;;;;;;33.05;18.73;;;;;;;;;;4998499;28;20270;-71
2022/03/16 10:37:52;;;;;;;33.00;19.30;;;;;;;;;;4999270;28;20622;-71
2022/03/16 10:40:18;;;;;;;32.40;18.00;;;;;;;;;;4998786;28;20018;-70
2022/03/16 10:48:12;;;;;;;30.23;18.10;;;;;;;;;;4999597;28;20788;-70
2022/03/16 10:50:39;;;;;;;30.60;18.25;;;;;;;;;;4999912;28;20356;-70
2022/03/16 10:53:04;;;;;;;28.00;17.85;;;;;;;;;;4996873;28;20018;-70
2022/03/16 10:55:29;;;;;;;25.55;16.23;;;;;;;;;;4999560;28;20029;-70
2022/03/16 10:57:54;;;;;;;26.30;16.73;;;;;;;;;;4999874;28;20053;-70
2022/03/16 11:00:21;;;;;;;24.35;16.85;;;;;;;;;;4999253;28;20331;-70
2022/03/16 11:02:47;;;;;;;24.20;16.48;;;;;;;;;;4998902;28;20985;-70
2022/03/16 11:05:16;;;;;;;27.70;17.55;;;;;;;;;;4998015;28;20046;-70
2022/03/16 11:07:43;;;;;;;23.52;17.05;;;;;;;;;;4998746;28;20109;-70
2022/03/16 11:10:08;;;;;;;25.90;16.67;;;;;;;;;;4999048;28;20431;-70
2022/03/16 11:15:19;;;;;;;27.77;15.80;;;;;;;;;;5002873;28;20415;-70
2022/03/16 11:17:44;;;;;;;22.55;15.05;;;;;;;;;;5000794;28;20045;-70
2022/03/16 11:20:09;;;;;;;21.23;14.38;;;;;;;;;;5002765;28;20017;-70
2022/03/16 11:22:35;;;;;;;23.83;15.10;;;;;;;;;;5001171;28;20041;-69
2022/03/16 11:25:05;;;;;;;18.85;13.73;;;;;;;;;;5001160;28;20085;-71
2022/03/16 11:27:30;;;;;;;22.98;14.93;;;;;;;;;;4983992;28;20032;-71
2022/03/16 11:30:02;;;;;;;21.55;15.10;;;;;;;;;;5002197;28;20026;-70
2022/03/16 11:32:31;;;;;;;20.15;13.95;;;;;;;;;;4999259;28;21028;-70
2022/03/16 11:35:00;;;;;;;19.55;14.52;;;;;;;;;;5002119;28;20041;-70
2022/03/16 11:37:39;;;;;;;21.00;14.38;;;;;;;;;;5001083;28;20022;-70
2022/03/16 11:40:09;;;;;;;22.45;14.75;;;;;;;;;;5002397;28;20072;-70
2022/03/16 11:42:34;;;;;;;19.50;14.52;;;;;;;;;;5002006;28;20069;-70
2022/03/16 11:45:20;;;;;;;18.20;13.18;;;;;;;;;;5002175;28;20010;-70
2022/03/16 11:47:46;;;;;;;19.77;14.25;;;;;;;;;;5001756;28;20433;-70
2022/03/16 11:50:13;;;;;;;21.08;15.00;;;;;;;;;;5001817;28;20049;-70
2022/03/16 11:52:54;;;;;;;20.63;13.98;;;;;;;;;;5002158;28;20018;-70
2022/03/16 11:55:38;;;;;;;18.25;13.55;;;;;;;;;;5001332;28;20014;-70
2022/03/16 11:58:14;;;;;;;19.05;14.57;;;;;;;;;;5001471;28;20026;-70
2022/03/16 12:00:40;;;;;;;21.65;15.25;;;;;;;;;;4999786;28;20117;-70
2022/03/16 12:03:05;;;;;;;18.65;13.77;;;;;;;;;;5001799;28;20018;-70
2022/03/16 12:05:50;;;;;;;25.83;14.45;;;;;;;;;;5000411;28;20029;-70
2022/03/16 12:08:16;;;;;;;18.50;14.00;;;;;;;;;;5002090;28;20267;-70
2022/03/16 12:12:50;;;;;;;19.77;14.10;;;;;;;;;;5000845;28;20396;-70
2022/03/16 12:13:33;;;;;;;22.73;15.32;;;;;;;;;;5001216;28;20030;-70
2022/03/16 12:15:58;;;;;;;21.25;14.43;;;;;;;;;;4999717;28;20029;-69
2022/03/16 12:18:24;;;;;;;23.42;14.50;;;;;;;;;;5000906;28;20080;-69
2022/03/16 12:20:53;;;;;;;20.15;14.18;;;;;;;;;;5001549;28;20267;-70
2022/03/16 12:23:38;;;;;;;17.75;13.90;;;;;;;;;;5002296;28;20010;-70
2022/03/16 12:26:03;;;;;;;19.70;13.40;;;;;;;;;;5001320;28;20022;-70
2022/03/16 12:31:13;;;;;;;17.57;13.53;;;;;;;;;;4998626;28;20371;-70
2022/03/16 12:33:48;;;;;;;19.10;13.30;;;;;;;;;;4999778;28;20141;-70
2022/03/16 12:36:14;;;;;;;18.58;12.73;;;;;;;;;;5004330;28;20080;-70
2022/03/16 12:38:40;;;;;;;18.95;12.82;;;;;;;;;;5001016;28;21250;-70
2022/03/16 12:44:06;;;;;;;21.00;12.95;;;;;;;;;;4980919;28;20443;-70
2022/03/16 12:46:41;;;;;;;20.80;13.13;;;;;;;;;;4999633;28;20033;-70
2022/03/16 12:49:07;;;;;;;16.00;12.32;;;;;;;;;;5002189;28;20032;-69
2022/03/16 12:51:35;;;;;;;18.85;12.32;;;;;;;;;;5000145;28;20026;-71
2022/03/16 12:54:00;;;;;;;20.40;12.05;;;;;;;;;;4986591;28;20160;-71
2022/03/16 12:56:26;;;;;;;14.40;10.93;;;;;;;;;;4983329;28;20437;-70
2022/03/16 12:58:52;;;;;;;15.95;11.65;;;;;;;;;;4999669;28;20491;-70
2022/03/16 13:01:17;;;;;;;17.35;10.23;;;;;;;;;;4996840;28;20347;-70
2022/03/16 13:03:43;;;;;;;17.70;10.68;;;;;;;;;;4998289;28;20113;-69
2022/03/16 13:06:16;;;;;;;14.20;9.90;;;;;;;;;;4998693;28;20018;-69
2022/03/16 13:08:42;;;;;;;13.85;10.35;;;;;;;;;;4998340;28;20501;-70
2022/03/16 13:11:17;;;;;;;14.15;10.77;;;;;;;;;;4999483;28;20084;-69
2022/03/16 13:13:48;;;;;;;18.63;11.48;;;;;;;;;;4999604;28;20507;-69
2022/03/16 13:16:29;;;;;;;16.48;11.30;;;;;;;;;;4998819;28;20053;-69
2022/03/16 13:18:54;;;;;;;22.73;11.20;;;;;;;;;;4995233;28;20022;-71
2022/03/16 13:21:23;;;;;;;18.77;11.75;;;;;;;;;;4999872;28;20018;-69
2022/03/16 13:23:48;;;;;;;14.25;11.10;;;;;;;;;;4998353;28;20077;-69
2022/03/16 13:26:13;;;;;;;19.17;11.98;;;;;;;;;;4999080;28;20426;-70
2022/03/16 13:28:39;;;;;;;18.60;11.87;;;;;;;;;;4999820;28;20279;-70
2022/03/16 13:31:04;;;;;;;15.90;11.88;;;;;;;;;;4995877;28;20359;-69
2022/03/16 13:33:29;;;;;;;29.65;12.95;;;;;;;;;;4998104;28;20069;-70
2022/03/16 13:36:13;;;;;;;21.50;12.75;;;;;;;;;;4995763;28;20038;-71
2022/03/16 13:38:38;;;;;;;29.75;13.82;;;;;;;;;;4999072;28;20026;-70
2022/03/16 13:41:13;;;;;;;21.48;12.90;;;;;;;;;;4981288;28;20022;-69
2022/03/16 13:43:38;;;;;;;17.05;11.75;;;;;;;;;;5000195;28;20018;-70
2022/03/16 13:46:06;;;;;;;14.82;11.02;;;;;;;;;;4998114;28;20061;-69
2022/03/16 13:48:36;;;;;;;17.30;11.15;;;;;;;;;;4998505;28;20511;-70
2022/03/16 13:51:02;;;;;;;13.95;11.30;;;;;;;;;;4998919;28;20037;-70
2022/03/16 13:53:27;;;;;;;18.02;12.15;;;;;;;;;;4997837;28;20053;-70
2022/03/16 13:55:53;;;;;;;16.65;11.98;;;;;;;;;;4999933;28;20030;-70
2022/03/16 13:58:19;;;;;;;45.90;15.65;;;;;;;;;;4998973;28;20492;-69
2022/03/16 14:00:47;;;;;;;19.75;12.93;;;;;;;;;;4997266;28;20026;-69
2022/03/16 14:03:12;;;;;;;18.73;12.18;;;;;;;;;;4999225;28;20618;-70
2022/03/16 14:05:40;;;;;;;23.65;13.32;;;;;;;;;;4998894;28;20053;-69
2022/03/16 14:08:09;;;;;;;22.35;13.05;;;;;;;;;;4997981;28;20026;-70
2022/03/16 14:10:34;;;;;;;17.67;13.23;;;;;;;;;;4999066;28;20014;-70
2022/03/16 14:13:03;;;;;;;20.67;12.90;;;;;;;;;;4999765;28;20076;-70
2022/03/16 14:15:28;;;;;;;17.98;12.70;;;;;;;;;;4998273;28;20037;-69
2022/03/16 14:17:55;;;;;;;18.75;13.02;;;;;;;;;;4998688;28;20030;-70
2022/03/16 14:20:28;;;;;;;16.27;11.82;;;;;;;;;;4998834;28;20268;-70
2022/03/16 14:22:53;;;;;;;17.30;12.00;;;;;;;;;;4998916;28;20030;-70
2022/03/16 14:25:22;;;;;;;17.65;12.18;;;;;;;;;;4998467;28;20036;-70
2022/03/16 14:27:48;;;;;;;20.80;12.65;;;;;;;;;;4999250;28;20038;-70
2022/03/16 14:30:14;;;;;;;22.23;11.63;;;;;;;;;;4994749;28;20512;-70
2022/03/16 14:32:40;;;;;;;18.00;12.20;;;;;;;;;;4997495;28;20169;-71
2022/03/16 14:35:05;;;;;;;17.42;11.32;;;;;;;;;;4997692;28;20608;-71